Kota Padang, Indonesia

06:40 AM WIT on September 03, 2014 (GMT +0700)
MINANGKABAU INT | Change Station
CLOSE
Current Station
Airport
Location: MINANGKABAU INT,
Elevation: 16 ft
Nearby Weather Stations

Elev 16 ft 0.79 °S, 100.28 °E | Updated 40 minutes ago

Scattered Clouds
Mendung Tidak Merata
73 °F
Feels Like 73 °F
N
4
Angin Variable Angin from Dari Utara ke Timurlaut

Siang Ini
High -- | Low -- °F
--% Chance of Precip.
Yesterday
High -- | Low -- °F
Precip. -- Inch
6:15 AM 6:20 PM
Triwulan Pertama, 56% visible
Tekanan 29.86 Inch
Jarak Pandang 5.0 Mil
Awan Mendung Tidak Merata 2000 ft
Titik Embun 70 °F
Kelembaban 88%
Rainfall 0.00 Inch
Snow Depth Not available.
UV 0 out of 12
Pollen Not available.
Air Quality Not available.
Flu Activity Not available.
METAR WIPT 022300Z 03003KT 8000 SCT020 23/21 Q1011

More Conditions Fewer Conditions

Tekanan 29.86 Inch
Jarak Pandang 5.0 Mil
Awan Mendung Tidak Merata 2000 ft
Titik Embun 70 °F
Kelembaban 88%
Rainfall 0.00 Inch
Snow Depth Not available.
UV 0 out of 12
Pollen Not available.
Air Quality Not available.
Flu Activity Not available.
METAR WIPT 022300Z 03003KT 8000 SCT020 23/21 Q1011

More Conditions Fewer Conditions

10-Day Weather Forecast

Almanac

Astronomi

Sep. 03, 2014 Rise Set
Actual Time 6:15 AM WIT 6:20 PM WIT
Civil Twilight 5:54 AM WIT 6:41 PM WIT
Nautical Twilight 5:30 AM WIT 7:05 PM WIT
Astronomical Twilight 5:06 AM WIT 7:30 PM WIT
Moon 12:49 PM WIT (9/3) 12:22 AM WIT (9/3)
Length Of Visible Light 12h 47m
Lama Satu Hari
12h 05m
Tomorrow will be 0m 3s longer.
Triwulan Pertama, 56% of the Moon is Illuminated
Sep 2
Triwulan Pertama
Sep 8
Bulan Purnama
Sep 15
Kuartil Terakhir
Sep 24
New
Oct 1
Triwulan Pertama

Yesterday's Extremes

Country Highs Country Lows

Community

WunderPhotos

Upload Photos

1,749,799 photos uploaded!

Nearby

Snow Depth

Not available.

Earthquake Activity

City Distance Mag. Time & Date
No recent earthquake activity has been reported nearby.
Minimum magnitude displayed is 2.5.

Coastal Water Temperatures

Lokasi Temperatur
No Stations Reporting

Nearby Weather Stations